Heerde, Netherlands
Current Conditions -  °F | °C
As of 6:25 AM on Saturday 25 Oct 2014 (Local Time) from EHDL Reporting Station
Haze Haze  
Wind Chill: 54°   Ceiling: 200
Heat Index: 54°   Visibility: 0.68mi
Dew Point: 52°   Wind: 8mph
Humidity: 94%   Direction: 210°SSW
Pressure: 29.97"   Gusts: NA
Location:  52.39°N, 6.04°E
Report Text: EHDL 250425Z AUTO 21007KT 1100 BR BKN000 OVC002 12/11 Q1015 RED
Loading
Personal Weather Stations






























Interactive Weather Map
Tropical Storm Tracking
New forecast layout! Learn more

10-Day Weather Forecast

Advertisements
Track Severe Weather on mobile